sensor_id;sensor_type;location;lat;lon;timestamp;temperature;humidity
6054;DHT22;3055;50.886;14.814;2023-07-31T00:02:04;14.30;99.90
6054;DHT22;3055;50.886;14.814;2023-07-31T00:04:32;14.30;99.90
6054;DHT22;3055;50.886;14.814;2023-07-31T00:06:59;14.20;99.90
6054;DHT22;3055;50.886;14.814;2023-07-31T00:09:26;14.20;99.90
6054;DHT22;3055;50.886;14.814;2023-07-31T00:11:53;14.20;99.90
6054;DHT22;3055;50.886;14.814;2023-07-31T00:14:21;14.20;99.90
6054;DHT22;3055;50.886;14.814;2023-07-31T00:16:48;14.20;99.90
6054;DHT22;3055;50.886;14.814;2023-07-31T00:19:15;14.20;99.90
6054;DHT22;3055;50.886;14.814;2023-07-31T00:21:44;14.20;99.90
6054;DHT22;3055;50.886;14.814;2023-07-31T00:24:11;14.20;99.90
6054;DHT22;3055;50.886;14.814;2023-07-31T00:26:38;14.20;99.90
6054;DHT22;3055;50.886;14.814;2023-07-31T00:29:05;14.30;99.90
6054;DHT22;3055;50.886;14.814;2023-07-31T00:31:32;14.20;99.90
6054;DHT22;3055;50.886;14.814;2023-07-31T00:33:59;14.30;99.90
6054;DHT22;3055;50.886;14.814;2023-07-31T00:36:26;14.30;99.90
6054;DHT22;3055;50.886;14.814;2023-07-31T00:38:55;14.20;99.90
6054;DHT22;3055;50.886;14.814;2023-07-31T00:41:22;14.30;99.90
6054;DHT22;3055;50.886;14.814;2023-07-31T00:43:49;14.30;99.90
6054;DHT22;3055;50.886;14.814;2023-07-31T00:46:16;14.20;99.90
6054;DHT22;3055;50.886;14.814;2023-07-31T00:48:43;14.30;99.90
6054;DHT22;3055;50.886;14.814;2023-07-31T00:51:11;14.10;99.90
6054;DHT22;3055;50.886;14.814;2023-07-31T00:53:38;14.10;99.90
6054;DHT22;3055;50.886;14.814;2023-07-31T00:56:06;13.90;99.90
6054;DHT22;3055;50.886;14.814;2023-07-31T00:58:34;13.90;99.90
6054;DHT22;3055;50.886;14.814;2023-07-31T01:01:01;14.00;99.90
6054;DHT22;3055;50.886;14.814;2023-07-31T01:03:28;13.90;99.90
6054;DHT22;3055;50.886;14.814;2023-07-31T01:06:06;13.80;99.90
6054;DHT22;3055;50.886;14.814;2023-07-31T01:08:41;13.80;99.90
6054;DHT22;3055;50.886;14.814;2023-07-31T01:11:16;13.80;99.90
6054;DHT22;3055;50.886;14.814;2023-07-31T01:13:44;13.70;99.90
6054;DHT22;3055;50.886;14.814;2023-07-31T01:16:12;13.70;99.90
6054;DHT22;3055;50.886;14.814;2023-07-31T01:18:39;13.70;99.90
6054;DHT22;3055;50.886;14.814;2023-07-31T01:21:21;13.60;99.90
6054;DHT22;3055;50.886;14.814;2023-07-31T01:24:17;13.60;99.90
6054;DHT22;3055;50.886;14.814;2023-07-31T01:26:53;13.60;99.90
6054;DHT22;3055;50.886;14.814;2023-07-31T01:29:28;13.50;99.90
6054;DHT22;3055;50.886;14.814;2023-07-31T01:31:56;13.50;99.90
6054;DHT22;3055;50.886;14.814;2023-07-31T01:34:26;13.50;99.90
6054;DHT22;3055;50.886;14.814;2023-07-31T01:36:55;13.50;99.90
6054;DHT22;3055;50.886;14.814;2023-07-31T01:39:22;13.40;99.90
6054;DHT22;3055;50.886;14.814;2023-07-31T01:41:51;13.40;99.90
6054;DHT22;3055;50.886;14.814;2023-07-31T01:44:18;13.30;99.90
6054;DHT22;3055;50.886;14.814;2023-07-31T01:46:45;13.30;99.90
6054;DHT22;3055;50.886;14.814;2023-07-31T01:49:13;13.30;99.90
6054;DHT22;3055;50.886;14.814;2023-07-31T01:51:40;13.40;99.90
6054;DHT22;3055;50.886;14.814;2023-07-31T01:54:07;13.40;99.90
6054;DHT22;3055;50.886;14.814;2023-07-31T01:56:34;13.40;99.90
6054;DHT22;3055;50.886;14.814;2023-07-31T01:59:02;13.40;99.90
6054;DHT22;3055;50.886;14.814;2023-07-31T02:01:29;13.30;99.90
6054;DHT22;3055;50.886;14.814;2023-07-31T02:03:57;13.30;99.90
6054;DHT22;3055;50.886;14.814;2023-07-31T02:06:24;13.20;99.90
6054;DHT22;3055;50.886;14.814;2023-07-31T02:08:51;13.30;99.90
6054;DHT22;3055;50.886;14.814;2023-07-31T02:11:18;13.30;99.90
6054;DHT22;3055;50.886;14.814;2023-07-31T02:13:45;13.30;99.90
6054;DHT22;3055;50.886;14.814;2023-07-31T02:16:13;13.30;99.90
6054;DHT22;3055;50.886;14.814;2023-07-31T02:18:40;13.40;99.90
6054;DHT22;3055;50.886;14.814;2023-07-31T02:21:07;13.30;99.90
6054;DHT22;3055;50.886;14.814;2023-07-31T02:23:34;13.40;99.90
6054;DHT22;3055;50.886;14.814;2023-07-31T02:26:02;13.30;99.90
6054;DHT22;3055;50.886;14.814;2023-07-31T02:28:29;13.40;99.90
6054;DHT22;3055;50.886;14.814;2023-07-31T02:30:56;13.50;99.90
6054;DHT22;3055;50.886;14.814;2023-07-31T02:33:25;13.60;99.90
6054;DHT22;3055;50.886;14.814;2023-07-31T02:35:52;13.60;99.90
6054;DHT22;3055;50.886;14.814;2023-07-31T02:38:19;13.60;99.90
6054;DHT22;3055;50.886;14.814;2023-07-31T02:40:46;13.70;99.90
6054;DHT22;3055;50.886;14.814;2023-07-31T02:43:13;13.70;99.90
6054;DHT22;3055;50.886;14.814;2023-07-31T02:45:41;13.70;99.90
6054;DHT22;3055;50.886;14.814;2023-07-31T02:48:08;13.80;99.90
6054;DHT22;3055;50.886;14.814;2023-07-31T02:50:36;13.80;99.90
6054;DHT22;3055;50.886;14.814;2023-07-31T02:53:03;13.80;99.90
6054;DHT22;3055;50.886;14.814;2023-07-31T02:55:30;13.80;99.90
6054;DHT22;3055;50.886;14.814;2023-07-31T02:57:57;13.80;99.90
6054;DHT22;3055;50.886;14.814;2023-07-31T03:00:25;13.80;99.90
6054;DHT22;3055;50.886;14.814;2023-07-31T03:02:52;13.70;99.90
6054;DHT22;3055;50.886;14.814;2023-07-31T03:05:18;13.70;99.90
6054;DHT22;3055;50.886;14.814;2023-07-31T03:07:47;13.70;99.90
6054;DHT22;3055;50.886;14.814;2023-07-31T03:10:14;13.70;99.90
6054;DHT22;3055;50.886;14.814;2023-07-31T03:12:41;13.70;99.90
6054;DHT22;3055;50.886;14.814;2023-07-31T03:15:11;13.70;99.90
6054;DHT22;3055;50.886;14.814;2023-07-31T03:17:38;13.70;99.90
6054;DHT22;3055;50.886;14.814;2023-07-31T03:20:05;13.70;99.90
6054;DHT22;3055;50.886;14.814;2023-07-31T03:22:34;13.70;99.90
6054;DHT22;3055;50.886;14.814;2023-07-31T03:25:03;13.80;99.90
6054;DHT22;3055;50.886;14.814;2023-07-31T03:27:31;13.80;99.90
6054;DHT22;3055;50.886;14.814;2023-07-31T03:29:58;13.90;99.90
6054;DHT22;3055;50.886;14.814;2023-07-31T03:32:26;13.90;99.90
6054;DHT22;3055;50.886;14.814;2023-07-31T03:34:53;14.00;99.90
6054;DHT22;3055;50.886;14.814;2023-07-31T03:37:20;14.00;99.90
6054;DHT22;3055;50.886;14.814;2023-07-31T03:39:48;14.00;99.90
6054;DHT22;3055;50.886;14.814;2023-07-31T03:42:16;14.00;99.90
6054;DHT22;3055;50.886;14.814;2023-07-31T03:44:43;14.10;99.90
6054;DHT22;3055;50.886;14.814;2023-07-31T03:47:10;14.20;99.90
6054;DHT22;3055;50.886;14.814;2023-07-31T03:49:38;14.20;99.90
6054;DHT22;3055;50.886;14.814;2023-07-31T03:52:05;14.30;99.90
6054;DHT22;3055;50.886;14.814;2023-07-31T03:54:32;14.40;99.90
6054;DHT22;3055;50.886;14.814;2023-07-31T03:56:59;14.30;99.90
6054;DHT22;3055;50.886;14.814;2023-07-31T03:59:28;14.40;99.90
6054;DHT22;3055;50.886;14.814;2023-07-31T04:01:55;14.50;99.90
6054;DHT22;3055;50.886;14.814;2023-07-31T04:04:22;14.50;99.90
6054;DHT22;3055;50.886;14.814;2023-07-31T04:06:49;14.60;99.90
6054;DHT22;3055;50.886;14.814;2023-07-31T04:09:16;14.60;99.90
6054;DHT22;3055;50.886;14.814;2023-07-31T04:11:43;14.70;99.90
6054;DHT22;3055;50.886;14.814;2023-07-31T04:14:10;14.80;99.90
6054;DHT22;3055;50.886;14.814;2023-07-31T04:16:39;14.80;99.90
6054;DHT22;3055;50.886;14.814;2023-07-31T04:19:06;14.80;99.90
6054;DHT22;3055;50.886;14.814;2023-07-31T04:21:33;14.70;99.90
6054;DHT22;3055;50.886;14.814;2023-07-31T04:24:00;14.80;99.90
6054;DHT22;3055;50.886;14.814;2023-07-31T04:26:27;14.80;99.90
6054;DHT22;3055;50.886;14.814;2023-07-31T04:28:54;14.80;99.90
6054;DHT22;3055;50.886;14.814;2023-07-31T04:31:21;14.90;99.90
6054;DHT22;3055;50.886;14.814;2023-07-31T04:33:50;14.90;99.90
6054;DHT22;3055;50.886;14.814;2023-07-31T04:36:17;14.90;99.90
6054;DHT22;3055;50.886;14.814;2023-07-31T04:38:44;14.80;99.90
6054;DHT22;3055;50.886;14.814;2023-07-31T04:41:11;14.80;99.90
6054;DHT22;3055;50.886;14.814;2023-07-31T04:43:38;14.80;99.90
6054;DHT22;3055;50.886;14.814;2023-07-31T04:46:06;14.80;99.90
6054;DHT22;3055;50.886;14.814;2023-07-31T04:48:33;14.90;99.90
6054;DHT22;3055;50.886;14.814;2023-07-31T04:51:02;14.90;99.90
6054;DHT22;3055;50.886;14.814;2023-07-31T04:53:29;15.00;99.90
6054;DHT22;3055;50.886;14.814;2023-07-31T04:55:56;15.00;99.90
6054;DHT22;3055;50.886;14.814;2023-07-31T04:58:23;15.10;99.90
6054;DHT22;3055;50.886;14.814;2023-07-31T05:00:50;15.30;99.90
6054;DHT22;3055;50.886;14.814;2023-07-31T05:03:17;15.40;99.90
6054;DHT22;3055;50.886;14.814;2023-07-31T05:05:44;15.60;99.90
6054;DHT22;3055;50.886;14.814;2023-07-31T05:08:13;15.70;99.90
6054;DHT22;3055;50.886;14.814;2023-07-31T05:10:40;15.80;99.90
6054;DHT22;3055;50.886;14.814;2023-07-31T05:13:07;15.90;99.90
6054;DHT22;3055;50.886;14.814;2023-07-31T05:15:34;16.00;99.90
6054;DHT22;3055;50.886;14.814;2023-07-31T05:18:01;16.00;99.90
6054;DHT22;3055;50.886;14.814;2023-07-31T05:20:28;16.00;99.90
6054;DHT22;3055;50.886;14.814;2023-07-31T05:22:55;15.90;99.90
6054;DHT22;3055;50.886;14.814;2023-07-31T05:25:23;15.90;99.90
6054;DHT22;3055;50.886;14.814;2023-07-31T05:27:50;15.90;99.90
6054;DHT22;3055;50.886;14.814;2023-07-31T05:30:17;15.90;99.90
6054;DHT22;3055;50.886;14.814;2023-07-31T05:32:45;15.90;99.90
6054;DHT22;3055;50.886;14.814;2023-07-31T05:35:12;15.80;99.90
6054;DHT22;3055;50.886;14.814;2023-07-31T05:37:39;15.80;99.90
6054;DHT22;3055;50.886;14.814;2023-07-31T05:40:07;15.70;99.90
6054;DHT22;3055;50.886;14.814;2023-07-31T05:42:35;15.70;99.90
6054;DHT22;3055;50.886;14.814;2023-07-31T05:45:05;15.60;99.90
6054;DHT22;3055;50.886;14.814;2023-07-31T05:47:32;15.60;99.90
6054;DHT22;3055;50.886;14.814;2023-07-31T05:50:00;15.60;99.90
6054;DHT22;3055;50.886;14.814;2023-07-31T05:52:27;15.70;99.90
6054;DHT22;3055;50.886;14.814;2023-07-31T05:54:56;15.80;99.90
6054;DHT22;3055;50.886;14.814;2023-07-31T05:57:23;16.00;99.90
6054;DHT22;3055;50.886;14.814;2023-07-31T05:59:52;16.20;99.90
6054;DHT22;3055;50.886;14.814;2023-07-31T06:02:22;16.30;99.90
6054;DHT22;3055;50.886;14.814;2023-07-31T06:04:49;16.40;99.90
6054;DHT22;3055;50.886;14.814;2023-07-31T06:07:16;16.60;99.90
6054;DHT22;3055;50.886;14.814;2023-07-31T06:09:44;16.80;99.90
6054;DHT22;3055;50.886;14.814;2023-07-31T06:12:12;17.00;95.30
6054;DHT22;3055;50.886;14.814;2023-07-31T06:14:39;17.00;73.70
6054;DHT22;3055;50.886;14.814;2023-07-31T06:17:07;16.90;96.00
6054;DHT22;3055;50.886;14.814;2023-07-31T06:19:36;16.70;92.50
6054;DHT22;3055;50.886;14.814;2023-07-31T06:22:04;16.70;99.90
6054;DHT22;3055;50.886;14.814;2023-07-31T06:24:31;16.60;99.90
6054;DHT22;3055;50.886;14.814;2023-07-31T06:26:58;16.60;99.90
6054;DHT22;3055;50.886;14.814;2023-07-31T06:29:25;16.60;99.90
6054;DHT22;3055;50.886;14.814;2023-07-31T06:31:52;16.60;99.90
6054;DHT22;3055;50.886;14.814;2023-07-31T06:34:21;16.60;99.90
6054;DHT22;3055;50.886;14.814;2023-07-31T06:36:48;16.50;99.90
6054;DHT22;3055;50.886;14.814;2023-07-31T06:39:15;16.50;99.90
6054;DHT22;3055;50.886;14.814;2023-07-31T06:41:42;16.40;99.90
6054;DHT22;3055;50.886;14.814;2023-07-31T06:44:09;16.40;99.90
6054;DHT22;3055;50.886;14.814;2023-07-31T06:46:36;16.40;99.90
6054;DHT22;3055;50.886;14.814;2023-07-31T06:49:03;16.30;99.90
6054;DHT22;3055;50.886;14.814;2023-07-31T06:51:32;16.30;99.90
6054;DHT22;3055;50.886;14.814;2023-07-31T06:53:59;16.40;99.90
6054;DHT22;3055;50.886;14.814;2023-07-31T06:56:26;16.30;99.90
6054;DHT22;3055;50.886;14.814;2023-07-31T06:58:53;16.30;99.90
6054;DHT22;3055;50.886;14.814;2023-07-31T07:01:20;16.20;99.90
6054;DHT22;3055;50.886;14.814;2023-07-31T07:03:47;16.20;99.90
6054;DHT22;3055;50.886;14.814;2023-07-31T07:06:16;16.20;99.90
6054;DHT22;3055;50.886;14.814;2023-07-31T07:08:45;16.10;99.90
6054;DHT22;3055;50.886;14.814;2023-07-31T07:11:12;16.10;99.90
6054;DHT22;3055;50.886;14.814;2023-07-31T07:13:39;16.20;99.90
6054;DHT22;3055;50.886;14.814;2023-07-31T07:16:06;16.10;99.90
6054;DHT22;3055;50.886;14.814;2023-07-31T07:18:33;16.10;99.90
6054;DHT22;3055;50.886;14.814;2023-07-31T07:21:00;16.10;99.90
6054;DHT22;3055;50.886;14.814;2023-07-31T07:23:28;16.20;99.90
6054;DHT22;3055;50.886;14.814;2023-07-31T07:25:56;16.20;99.90
6054;DHT22;3055;50.886;14.814;2023-07-31T07:28:23;16.20;99.90
6054;DHT22;3055;50.886;14.814;2023-07-31T07:30:51;16.30;99.90
6054;DHT22;3055;50.886;14.814;2023-07-31T07:33:20;16.50;99.90
6054;DHT22;3055;50.886;14.814;2023-07-31T07:35:47;16.50;99.90
6054;DHT22;3055;50.886;14.814;2023-07-31T07:38:14;16.50;99.90
6054;DHT22;3055;50.886;14.814;2023-07-31T07:40:41;16.40;99.90
6054;DHT22;3055;50.886;14.814;2023-07-31T07:43:10;16.50;99.90
6054;DHT22;3055;50.886;14.814;2023-07-31T07:45:37;16.50;99.90
6054;DHT22;3055;50.886;14.814;2023-07-31T07:48:04;16.60;99.90
6054;DHT22;3055;50.886;14.814;2023-07-31T07:50:31;16.40;99.90
6054;DHT22;3055;50.886;14.814;2023-07-31T07:52:59;16.40;99.90
6054;DHT22;3055;50.886;14.814;2023-07-31T07:55:26;16.40;99.90
6054;DHT22;3055;50.886;14.814;2023-07-31T07:57:53;16.50;99.90
6054;DHT22;3055;50.886;14.814;2023-07-31T08:00:22;16.70;99.90
6054;DHT22;3055;50.886;14.814;2023-07-31T08:02:49;16.80;99.90
6054;DHT22;3055;50.886;14.814;2023-07-31T08:05:16;16.90;99.90
6054;DHT22;3055;50.886;14.814;2023-07-31T08:07:44;16.90;99.90
6054;DHT22;3055;50.886;14.814;2023-07-31T08:10:11;16.90;99.90
6054;DHT22;3055;50.886;14.814;2023-07-31T08:12:38;17.00;99.90
6054;DHT22;3055;50.886;14.814;2023-07-31T08:15:06;17.00;99.90
6054;DHT22;3055;50.886;14.814;2023-07-31T08:17:35;16.90;99.90
6054;DHT22;3055;50.886;14.814;2023-07-31T08:20:02;16.90;99.90
6054;DHT22;3055;50.886;14.814;2023-07-31T08:22:30;16.80;99.90
6054;DHT22;3055;50.886;14.814;2023-07-31T08:24:58;16.90;99.90
6054;DHT22;3055;50.886;14.814;2023-07-31T08:27:25;17.00;99.90
6054;DHT22;3055;50.886;14.814;2023-07-31T08:29:52;17.00;99.90
6054;DHT22;3055;50.886;14.814;2023-07-31T08:32:19;17.00;99.90
6054;DHT22;3055;50.886;14.814;2023-07-31T08:34:48;17.00;99.90
6054;DHT22;3055;50.886;14.814;2023-07-31T08:37:15;17.10;99.90
6054;DHT22;3055;50.886;14.814;2023-07-31T08:39:42;17.20;99.90
6054;DHT22;3055;50.886;14.814;2023-07-31T08:42:09;17.10;99.90
6054;DHT22;3055;50.886;14.814;2023-07-31T08:44:36;17.00;99.90
6054;DHT22;3055;50.886;14.814;2023-07-31T08:47:04;17.00;99.90
6054;DHT22;3055;50.886;14.814;2023-07-31T08:49:32;17.10;99.90
6054;DHT22;3055;50.886;14.814;2023-07-31T08:52:02;17.30;99.90
6054;DHT22;3055;50.886;14.814;2023-07-31T08:54:29;17.50;99.90
6054;DHT22;3055;50.886;14.814;2023-07-31T08:56:59;17.50;97.90
6054;DHT22;3055;50.886;14.814;2023-07-31T08:59:28;17.70;46.40
6054;DHT22;3055;50.886;14.814;2023-07-31T09:01:57;17.80;48.50
6054;DHT22;3055;50.886;14.814;2023-07-31T09:04:28;17.90;61.00
6054;DHT22;3055;50.886;14.814;2023-07-31T09:07:01;17.90;55.50
6054;DHT22;3055;50.886;14.814;2023-07-31T09:09:30;18.00;55.20
6054;DHT22;3055;50.886;14.814;2023-07-31T09:11:58;18.10;54.70
6054;DHT22;3055;50.886;14.814;2023-07-31T09:14:25;18.20;43.20
6054;DHT22;3055;50.886;14.814;2023-07-31T09:16:54;18.20;38.10
6054;DHT22;3055;50.886;14.814;2023-07-31T09:19:28;18.40;29.60
6054;DHT22;3055;50.886;14.814;2023-07-31T09:21:55;18.50;19.90
6054;DHT22;3055;50.886;14.814;2023-07-31T09:24:30;18.70;1.00
6054;DHT22;3055;50.886;14.814;2023-07-31T09:26:59;18.80;10.00
6054;DHT22;3055;50.886;14.814;2023-07-31T09:29:27;19.00;1.00
6054;DHT22;3055;50.886;14.814;2023-07-31T09:31:55;19.10;1.00
6054;DHT22;3055;50.886;14.814;2023-07-31T09:34:30;19.40;1.00
6054;DHT22;3055;50.886;14.814;2023-07-31T09:37:01;19.80;1.00
6054;DHT22;3055;50.886;14.814;2023-07-31T09:39:30;20.10;1.00
6054;DHT22;3055;50.886;14.814;2023-07-31T09:41:57;20.20;99.90
6054;DHT22;3055;50.886;14.814;2023-07-31T09:44:37;20.40;68.80
6054;DHT22;3055;50.886;14.814;2023-07-31T09:47:06;20.50;1.00
6054;DHT22;3055;50.886;14.814;2023-07-31T09:49:33;20.40;1.00
6054;DHT22;3055;50.886;14.814;2023-07-31T09:52:00;20.50;1.00
6054;DHT22;3055;50.886;14.814;2023-07-31T09:54:28;20.60;1.00
6054;DHT22;3055;50.886;14.814;2023-07-31T09:56:58;20.80;1.00
6054;DHT22;3055;50.886;14.814;2023-07-31T09:59:27;20.90;99.90
6054;DHT22;3055;50.886;14.814;2023-07-31T10:01:55;21.00;1.00
6054;DHT22;3055;50.886;14.814;2023-07-31T10:04:27;21.00;99.90
6054;DHT22;3055;50.886;14.814;2023-07-31T10:06:55;20.90;99.90
6054;DHT22;3055;50.886;14.814;2023-07-31T10:09:26;21.00;99.90
6054;DHT22;3055;50.886;14.814;2023-07-31T10:12:00;21.10;99.90
6054;DHT22;3055;50.886;14.814;2023-07-31T10:14:30;21.20;99.90
6054;DHT22;3055;50.886;14.814;2023-07-31T10:16:58;21.30;99.90
6054;DHT22;3055;50.886;14.814;2023-07-31T10:19:27;21.50;99.90
6054;DHT22;3055;50.886;14.814;2023-07-31T10:21:54;21.70;99.90
6054;DHT22;3055;50.886;14.814;2023-07-31T10:24:24;21.50;99.90
6054;DHT22;3055;50.886;14.814;2023-07-31T10:26:53;21.40;99.90
6054;DHT22;3055;50.886;14.814;2023-07-31T10:29:26;21.60;99.90
6054;DHT22;3055;50.886;14.814;2023-07-31T10:31:56;21.70;99.90
6054;DHT22;3055;50.886;14.814;2023-07-31T10:34:24;21.70;99.90
6054;DHT22;3055;50.886;14.814;2023-07-31T10:37:20;22.00;99.90
6054;DHT22;3055;50.886;14.814;2023-07-31T10:39:59;22.30;99.90
6054;DHT22;3055;50.886;14.814;2023-07-31T10:42:31;22.30;99.90
6054;DHT22;3055;50.886;14.814;2023-07-31T10:45:02;22.20;99.90
6054;DHT22;3055;50.886;14.814;2023-07-31T10:47:30;22.10;99.90
6054;DHT22;3055;50.886;14.814;2023-07-31T10:50:18;22.00;99.90
6054;DHT22;3055;50.886;14.814;2023-07-31T10:52:49;22.00;99.90
6054;DHT22;3055;50.886;14.814;2023-07-31T10:55:25;22.10;99.90
6054;DHT22;3055;50.886;14.814;2023-07-31T10:57:52;22.50;99.90
6054;DHT22;3055;50.886;14.814;2023-07-31T11:00:24;22.80;99.90
6054;DHT22;3055;50.886;14.814;2023-07-31T11:02:59;22.80;99.90
6054;DHT22;3055;50.886;14.814;2023-07-31T11:05:44;22.80;99.90
6054;DHT22;3055;50.886;14.814;2023-07-31T11:08:13;22.80;99.90
6054;DHT22;3055;50.886;14.814;2023-07-31T11:10:41;22.90;99.90
6054;DHT22;3055;50.886;14.814;2023-07-31T11:13:08;23.00;99.90
6054;DHT22;3055;50.886;14.814;2023-07-31T11:15:37;23.20;99.90
6054;DHT22;3055;50.886;14.814;2023-07-31T11:18:04;23.00;99.90
6054;DHT22;3055;50.886;14.814;2023-07-31T11:20:35;22.90;99.90
6054;DHT22;3055;50.886;14.814;2023-07-31T11:23:03;23.00;99.90
6054;DHT22;3055;50.886;14.814;2023-07-31T11:25:30;22.80;99.90
6054;DHT22;3055;50.886;14.814;2023-07-31T11:28:03;22.60;99.90
6054;DHT22;3055;50.886;14.814;2023-07-31T11:30:30;22.60;99.90
6054;DHT22;3055;50.886;14.814;2023-07-31T11:33:01;22.40;99.90
6054;DHT22;3055;50.886;14.814;2023-07-31T11:35:31;22.30;99.90
6054;DHT22;3055;50.886;14.814;2023-07-31T11:37:58;22.50;99.90
6054;DHT22;3055;50.886;14.814;2023-07-31T11:40:25;22.80;99.90
6054;DHT22;3055;50.886;14.814;2023-07-31T11:42:56;23.20;99.90
6054;DHT22;3055;50.886;14.814;2023-07-31T11:45:26;23.40;99.90
6054;DHT22;3055;50.886;14.814;2023-07-31T11:47:55;23.60;98.60
6054;DHT22;3055;50.886;14.814;2023-07-31T11:50:24;23.80;78.00
6054;DHT22;3055;50.886;14.814;2023-07-31T11:52:55;23.90;77.50
6054;DHT22;3055;50.886;14.814;2023-07-31T11:55:24;24.30;73.00
6054;DHT22;3055;50.886;14.814;2023-07-31T11:57:52;24.10;32.60
6054;DHT22;3055;50.886;14.814;2023-07-31T12:00:21;23.80;37.30
6054;DHT22;3055;50.886;14.814;2023-07-31T12:02:48;23.70;34.40
6054;DHT22;3055;50.886;14.814;2023-07-31T12:05:16;23.60;26.80
6054;DHT22;3055;50.886;14.814;2023-07-31T12:07:50;23.60;27.50
6054;DHT22;3055;50.886;14.814;2023-07-31T12:10:28;23.60;30.10
6054;DHT22;3055;50.886;14.814;2023-07-31T12:12:59;23.70;22.50
6054;DHT22;3055;50.886;14.814;2023-07-31T12:15:34;23.60;19.10
6054;DHT22;3055;50.886;14.814;2023-07-31T12:18:04;23.70;26.10
6054;DHT22;3055;50.886;14.814;2023-07-31T12:20:32;23.70;20.30
6054;DHT22;3055;50.886;14.814;2023-07-31T12:23:02;23.60;14.70
6054;DHT22;3055;50.886;14.814;2023-07-31T12:25:30;23.60;12.10
6054;DHT22;3055;50.886;14.814;2023-07-31T12:28:03;23.50;8.90
6054;DHT22;3055;50.886;14.814;2023-07-31T12:30:32;23.30;12.40
6054;DHT22;3055;50.886;14.814;2023-07-31T12:33:03;23.30;13.90
6054;DHT22;3055;50.886;14.814;2023-07-31T12:35:35;23.40;12.00
6054;DHT22;3055;50.886;14.814;2023-07-31T12:38:04;23.50;12.50
6054;DHT22;3055;50.886;14.814;2023-07-31T12:40:31;23.70;17.40
6054;DHT22;3055;50.886;14.814;2023-07-31T12:43:01;23.80;8.50
6054;DHT22;3055;50.886;14.814;2023-07-31T12:45:29;23.90;10.80
6054;DHT22;3055;50.886;14.814;2023-07-31T12:47:57;23.90;5.80
6054;DHT22;3055;50.886;14.814;2023-07-31T12:50:24;23.70;1.00
6054;DHT22;3055;50.886;14.814;2023-07-31T12:52:51;23.60;1.00
6054;DHT22;3055;50.886;14.814;2023-07-31T12:55:22;23.50;1.00
6054;DHT22;3055;50.886;14.814;2023-07-31T12:57:50;23.20;2.90
6054;DHT22;3055;50.886;14.814;2023-07-31T13:00:17;23.00;1.80
6054;DHT22;3055;50.886;14.814;2023-07-31T13:02:44;22.90;3.40
6054;DHT22;3055;50.886;14.814;2023-07-31T13:05:12;22.80;6.20
6054;DHT22;3055;50.886;14.814;2023-07-31T13:07:40;22.80;5.60
6054;DHT22;3055;50.886;14.814;2023-07-31T13:10:08;22.70;10.10
6054;DHT22;3055;50.886;14.814;2023-07-31T13:12:37;22.90;17.50
6054;DHT22;3055;50.886;14.814;2023-07-31T13:15:05;23.20;3.90
6054;DHT22;3055;50.886;14.814;2023-07-31T13:17:32;23.30;7.50
6054;DHT22;3055;50.886;14.814;2023-07-31T13:20:00;23.60;3.00
6054;DHT22;3055;50.886;14.814;2023-07-31T13:22:27;24.00;1.00
6054;DHT22;3055;50.886;14.814;2023-07-31T13:24:54;24.10;1.00
6054;DHT22;3055;50.886;14.814;2023-07-31T13:27:21;24.30;1.00
6054;DHT22;3055;50.886;14.814;2023-07-31T13:29:51;24.70;1.00
6054;DHT22;3055;50.886;14.814;2023-07-31T13:32:19;24.80;1.00
6054;DHT22;3055;50.886;14.814;2023-07-31T13:34:47;24.60;1.00
6054;DHT22;3055;50.886;14.814;2023-07-31T13:37:15;24.80;1.00
6054;DHT22;3055;50.886;14.814;2023-07-31T13:39:42;24.90;1.00
6054;DHT22;3055;50.886;14.814;2023-07-31T13:42:10;25.00;1.00
6054;DHT22;3055;50.886;14.814;2023-07-31T13:44:38;25.30;1.00
6054;DHT22;3055;50.886;14.814;2023-07-31T13:47:08;25.60;1.00
6054;DHT22;3055;50.886;14.814;2023-07-31T13:49:36;25.60;1.00
6054;DHT22;3055;50.886;14.814;2023-07-31T13:52:05;25.60;1.00
6054;DHT22;3055;50.886;14.814;2023-07-31T13:54:32;25.60;1.00
6054;DHT22;3055;50.886;14.814;2023-07-31T13:56:59;25.70;1.00
6054;DHT22;3055;50.886;14.814;2023-07-31T13:59:29;25.60;1.00
6054;DHT22;3055;50.886;14.814;2023-07-31T14:01:56;25.60;1.00
6054;DHT22;3055;50.886;14.814;2023-07-31T14:04:24;26.20;1.00
6054;DHT22;3055;50.886;14.814;2023-07-31T14:06:51;26.80;1.00
6054;DHT22;3055;50.886;14.814;2023-07-31T14:09:18;27.30;1.00
6054;DHT22;3055;50.886;14.814;2023-07-31T14:11:45;27.20;1.00
6054;DHT22;3055;50.886;14.814;2023-07-31T14:14:13;27.10;1.00
6054;DHT22;3055;50.886;14.814;2023-07-31T14:16:40;27.00;1.00
6054;DHT22;3055;50.886;14.814;2023-07-31T14:19:07;26.80;1.00
6054;DHT22;3055;50.886;14.814;2023-07-31T14:21:35;26.50;1.00
6054;DHT22;3055;50.886;14.814;2023-07-31T14:24:03;26.20;1.00
6054;DHT22;3055;50.886;14.814;2023-07-31T14:26:30;25.80;1.00
6054;DHT22;3055;50.886;14.814;2023-07-31T14:28:57;25.60;1.00
6054;DHT22;3055;50.886;14.814;2023-07-31T14:31:24;25.40;1.00
6054;DHT22;3055;50.886;14.814;2023-07-31T14:33:52;25.20;1.00
6054;DHT22;3055;50.886;14.814;2023-07-31T14:36:19;25.00;1.00
6054;DHT22;3055;50.886;14.814;2023-07-31T14:38:47;24.80;1.00
6054;DHT22;3055;50.886;14.814;2023-07-31T14:41:14;24.70;1.00
6054;DHT22;3055;50.886;14.814;2023-07-31T14:43:44;24.60;1.00
6054;DHT22;3055;50.886;14.814;2023-07-31T14:46:11;24.60;1.00
6054;DHT22;3055;50.886;14.814;2023-07-31T14:48:38;24.50;1.00
6054;DHT22;3055;50.886;14.814;2023-07-31T14:51:05;24.60;1.00
6054;DHT22;3055;50.886;14.814;2023-07-31T14:53:32;25.00;1.00
6054;DHT22;3055;50.886;14.814;2023-07-31T14:56:01;25.70;1.00
6054;DHT22;3055;50.886;14.814;2023-07-31T14:58:28;26.50;1.00
6054;DHT22;3055;50.886;14.814;2023-07-31T15:00:55;27.20;1.00
6054;DHT22;3055;50.886;14.814;2023-07-31T15:03:22;27.70;1.00
6054;DHT22;3055;50.886;14.814;2023-07-31T15:05:50;28.20;1.00
6054;DHT22;3055;50.886;14.814;2023-07-31T15:08:17;28.10;1.00
6054;DHT22;3055;50.886;14.814;2023-07-31T15:10:44;28.50;1.00
6054;DHT22;3055;50.886;14.814;2023-07-31T15:13:13;29.10;1.00
6054;DHT22;3055;50.886;14.814;2023-07-31T15:15:40;28.90;1.00
6054;DHT22;3055;50.886;14.814;2023-07-31T15:18:07;28.80;1.00
6054;DHT22;3055;50.886;14.814;2023-07-31T15:20:34;29.10;1.00
6054;DHT22;3055;50.886;14.814;2023-07-31T15:23:01;28.80;1.00
6054;DHT22;3055;50.886;14.814;2023-07-31T15:25:29;28.00;1.00
6054;DHT22;3055;50.886;14.814;2023-07-31T15:27:56;27.50;1.00
6054;DHT22;3055;50.886;14.814;2023-07-31T15:30:24;27.30;1.00
6054;DHT22;3055;50.886;14.814;2023-07-31T15:32:52;27.40;1.00
6054;DHT22;3055;50.886;14.814;2023-07-31T15:35:19;27.00;1.00
6054;DHT22;3055;50.886;14.814;2023-07-31T15:37:46;27.00;1.00
6054;DHT22;3055;50.886;14.814;2023-07-31T15:40:13;26.90;1.00
6054;DHT22;3055;50.886;14.814;2023-07-31T15:42:40;26.50;1.00
6054;DHT22;3055;50.886;14.814;2023-07-31T15:45:08;26.00;1.00
6054;DHT22;3055;50.886;14.814;2023-07-31T15:47:37;25.60;1.00
6054;DHT22;3055;50.886;14.814;2023-07-31T15:50:05;25.20;1.00
6054;DHT22;3055;50.886;14.814;2023-07-31T15:52:32;24.80;1.00
6054;DHT22;3055;50.886;14.814;2023-07-31T15:55:02;24.60;1.00
6054;DHT22;3055;50.886;14.814;2023-07-31T15:57:29;24.20;1.00